Time;durP1;ratioP1;P1;durP2;ratioP2;P2;SDS_P1;SDS_P2;PMS_P1;PMS_P2;Temp;Humidity;BMP_temperature;BMP_pressure;BME280_temperature;BME280_humidity;BME280_pressure;Samples;Min_cycle;Max_cycle;Signal;HPM_P1;HPM_P2
2023/12/14 00:02:07;;;;;;;68.73;25.93;;;7.70;99.90;;;;;;5074256;28;20652;-45
2023/12/14 00:04:57;;;;;;;65.03;25.47;;;7.70;99.90;;;;;;5074636;28;20175;-46
2023/12/14 00:07:40;;;;;;;76.63;29.03;;;7.70;99.90;;;;;;5056433;28;20192;-46
2023/12/14 00:10:07;;;;;;;73.67;29.63;;;7.80;99.90;;;;;;5074769;28;20244;-45
2023/12/14 00:12:37;;;;;;;76.33;27.67;;;7.70;99.90;;;;;;5074343;28;20237;-45
2023/12/14 00:15:05;;;;;;;77.73;29.17;;;7.70;99.90;;;;;;5074166;28;20188;-44
2023/12/14 00:17:32;;;;;;;77.87;29.40;;;7.70;99.90;;;;;;5056411;28;20579;-43
2023/12/14 00:19:58;;;;;;;73.77;28.43;;;7.80;99.90;;;;;;5056309;28;20208;-45
2023/12/14 00:22:30;;;;;;;67.90;27.30;;;7.80;99.90;;;;;;5074191;28;20230;-44
2023/12/14 00:24:55;;;;;;;79.23;29.27;;;7.80;99.90;;;;;;5056296;28;20653;-44
2023/12/14 00:27:21;;;;;;;77.27;29.43;;;7.80;99.90;;;;;;5056303;28;20176;-45
2023/12/14 00:29:46;;;;;;;60.47;26.03;;;7.80;99.90;;;;;;5073891;28;20586;-45
2023/12/14 00:35:36;;;;;;;66.43;25.57;;;7.80;99.90;;;;;;5073870;28;20162;-46
2023/12/14 00:38:01;;;;;;;80.67;29.63;;;7.80;99.90;;;;;;5073977;28;20325;-46
2023/12/14 00:40:27;;;;;;;74.23;26.13;;;7.80;99.90;;;;;;5055804;28;20286;-44
2023/12/14 00:42:53;;;;;;;73.80;29.77;;;7.80;99.90;;;;;;5073564;28;20186;-45
2023/12/14 00:45:19;;;;;;;70.03;26.90;;;7.80;99.90;;;;;;5056401;28;20183;-45
2023/12/14 00:47:45;;;;;;;64.90;26.13;;;7.80;99.90;;;;;;5055595;28;20175;-44
2023/12/14 00:50:18;;;;;;;74.73;28.60;;;7.80;99.90;;;;;;5055736;28;20204;-45
2023/12/14 00:52:46;;;;;;;73.23;26.40;;;7.80;99.90;;;;;;5073829;28;20167;-45
2023/12/14 00:55:12;;;;;;;63.97;26.57;;;7.90;99.90;;;;;;5073637;28;20195;-44
2023/12/14 00:57:45;;;;;;;78.83;28.10;;;7.90;99.90;;;;;;5073356;28;20179;-45
2023/12/14 01:00:12;;;;;;;82.30;30.23;;;7.90;99.90;;;;;;5073272;28;20256;-46
2023/12/14 01:02:38;;;;;;;78.83;29.40;;;7.90;99.90;;;;;;5073919;28;20163;-45
2023/12/14 01:05:05;;;;;;;68.27;27.67;;;7.90;99.90;;;;;;5055563;28;20209;-44
2023/12/14 01:07:31;;;;;;;73.73;27.37;;;7.80;99.90;;;;;;5056025;28;20636;-44
2023/12/14 01:09:57;;;;;;;71.17;26.13;;;7.90;99.90;;;;;;5072216;28;20690;-46
2023/12/14 01:12:24;;;;;;;76.93;27.90;;;7.90;99.90;;;;;;5073233;28;20190;-45
2023/12/14 01:14:49;;;;;;;66.03;26.33;;;7.80;99.90;;;;;;5073159;28;20666;-45
2023/12/14 01:17:16;;;;;;;72.57;23.93;;;7.80;99.90;;;;;;5055812;28;20207;-46
2023/12/14 01:19:42;;;;;;;57.83;22.80;;;7.80;99.90;;;;;;5073334;28;20204;-45
2023/12/14 01:22:08;;;;;;;56.13;22.47;;;7.80;99.90;;;;;;5073249;28;20228;-44
2023/12/14 01:24:33;;;;;;;44.77;19.73;;;7.80;99.90;;;;;;5073252;28;20182;-46
2023/12/14 01:27:05;;;;;;;40.47;17.03;;;7.80;99.90;;;;;;5073189;28;20176;-45
2023/12/14 01:29:31;;;;;;;38.27;17.30;;;7.80;99.90;;;;;;5073382;28;20253;-43
2023/12/14 01:31:56;;;;;;;42.30;17.00;;;7.80;99.90;;;;;;5073974;28;20264;-44
2023/12/14 01:34:35;;;;;;;38.70;17.90;;;7.80;99.90;;;;;;5073130;28;20186;-44
2023/12/14 01:37:01;;;;;;;36.40;17.60;;;7.80;99.90;;;;;;5073408;28;20171;-44
2023/12/14 01:39:30;;;;;;;38.07;17.00;;;7.80;99.90;;;;;;5072956;28;20211;-44
2023/12/14 01:41:56;;;;;;;28.10;14.23;;;7.80;99.90;;;;;;5073016;28;20210;-44
2023/12/14 01:44:24;;;;;;;35.93;15.43;;;7.80;99.90;;;;;;5055458;28;20274;-47
2023/12/14 01:46:55;;;;;;;32.53;15.50;;;7.80;99.90;;;;;;5055294;28;20594;-45
2023/12/14 01:49:21;;;;;;;29.60;14.80;;;7.70;99.90;;;;;;5073333;28;20667;-44
2023/12/14 01:51:51;;;;;;;25.17;12.27;;;7.70;99.90;;;;;;5073267;28;20184;-45
2023/12/14 01:54:16;;;;;;;21.20;11.33;;;7.70;99.90;;;;;;5073268;28;20180;-45
2023/12/14 01:56:44;;;;;;;24.90;13.10;;;7.70;99.90;;;;;;5055041;28;20546;-45
2023/12/14 01:59:13;;;;;;;22.20;11.97;;;7.60;99.90;;;;;;5072804;28;20731;-44
2023/12/14 02:01:56;;;;;;;22.57;11.67;;;7.60;99.90;;;;;;5072818;28;20266;-46
2023/12/14 02:04:25;;;;;;;22.67;12.53;;;7.60;99.90;;;;;;5073154;28;20243;-45
2023/12/14 02:06:53;;;;;;;29.20;14.87;;;7.60;99.90;;;;;;5072424;28;20267;-45
2023/12/14 02:09:19;;;;;;;26.17;12.77;;;7.60;99.90;;;;;;5073050;28;20230;-45
2023/12/14 02:11:45;;;;;;;20.90;12.03;;;7.50;99.90;;;;;;5072977;28;20601;-46
2023/12/14 02:14:13;;;;;;;25.27;12.97;;;7.50;99.90;;;;;;5072715;28;20567;-45
2023/12/14 02:16:39;;;;;;;23.37;12.17;;;7.40;99.90;;;;;;5055906;28;20183;-45
2023/12/14 02:19:07;;;;;;;24.77;13.27;;;7.40;99.90;;;;;;5072549;28;20306;-47
2023/12/14 02:21:33;;;;;;;25.53;13.03;;;7.40;99.90;;;;;;5056307;28;20608;-45
2023/12/14 02:23:59;;;;;;;19.97;10.63;;;7.30;99.90;;;;;;5076317;28;20184;-44
2023/12/14 02:26:26;;;;;;;22.60;11.83;;;7.30;99.90;;;;;;5076805;28;20195;-47
2023/12/14 02:28:51;;;;;;;20.27;10.60;;;7.20;99.90;;;;;;5076447;28;20180;-44
2023/12/14 02:31:21;;;;;;;25.47;14.43;;;7.20;99.90;;;;;;5077050;28;20182;-45
2023/12/14 02:33:47;;;;;;;24.60;12.93;;;7.20;99.90;;;;;;5075428;28;20195;-44
2023/12/14 02:36:13;;;;;;;25.70;12.83;;;7.10;99.90;;;;;;5058463;28;20222;-46
2023/12/14 02:38:39;;;;;;;23.33;11.17;;;7.10;99.90;;;;;;5059048;28;20183;-47
2023/12/14 02:41:05;;;;;;;27.70;14.37;;;7.10;99.90;;;;;;5076237;28;20306;-48
2023/12/14 02:43:33;;;;;;;26.53;14.07;;;7.00;99.90;;;;;;5076065;28;20175;-46
2023/12/14 02:46:02;;;;;;;17.60;8.93;;;7.00;99.90;;;;;;5057532;28;20239;-47
2023/12/14 02:48:31;;;;;;;28.37;14.00;;;7.00;99.90;;;;;;5075979;28;20656;-47
2023/12/14 02:51:14;;;;;;;22.20;11.50;;;7.00;99.90;;;;;;5074470;28;20259;-47
2023/12/14 02:53:41;;;;;;;28.10;14.10;;;6.90;99.90;;;;;;5072836;28;20729;-47
2023/12/14 02:56:08;;;;;;;23.87;14.03;;;6.90;99.90;;;;;;5058428;28;20290;-48
2023/12/14 02:58:49;;;;;;;28.03;14.43;;;6.90;99.90;;;;;;5075574;28;20180;-49
2023/12/14 03:01:24;;;;;;;30.60;15.57;;;6.90;99.90;;;;;;5070416;28;20851;-46
2023/12/14 03:03:53;;;;;;;25.13;13.60;;;6.90;99.90;;;;;;5075943;28;20160;-47
2023/12/14 03:06:21;;;;;;;28.03;15.57;;;6.90;99.90;;;;;;5075797;28;20180;-48
2023/12/14 03:08:52;;;;;;;30.20;16.13;;;6.90;99.90;;;;;;5075765;28;20595;-48
2023/12/14 03:11:25;;;;;;;30.20;15.97;;;6.80;99.90;;;;;;5075623;28;20229;-47
2023/12/14 03:13:53;;;;;;;27.07;16.40;;;6.80;99.90;;;;;;5075705;28;20647;-47
2023/12/14 03:16:19;;;;;;;26.33;15.70;;;6.80;99.90;;;;;;5075381;28;20202;-49
2023/12/14 03:18:45;;;;;;;30.07;14.03;;;6.80;99.90;;;;;;5075205;28;20187;-49
2023/12/14 03:21:11;;;;;;;26.27;14.37;;;6.80;99.90;;;;;;5057214;28;20211;-49
2023/12/14 03:23:36;;;;;;;29.37;15.97;;;6.80;99.90;;;;;;5075263;28;20176;-48
2023/12/14 03:26:02;;;;;;;28.67;14.77;;;6.80;99.90;;;;;;5075698;28;20168;-48
2023/12/14 03:28:28;;;;;;;27.90;15.57;;;6.80;99.90;;;;;;5075420;28;20208;-47
2023/12/14 03:30:54;;;;;;;28.87;16.27;;;6.70;99.90;;;;;;5040611;28;20232;-48
2023/12/14 03:33:20;;;;;;;31.97;15.50;;;6.70;99.90;;;;;;5056444;28;20724;-47
2023/12/14 03:35:51;;;;;;;28.73;16.63;;;6.70;99.90;;;;;;5075246;28;20194;-48
2023/12/14 03:38:24;;;;;;;35.13;16.00;;;6.70;99.90;;;;;;5075043;28;20626;-47
2023/12/14 03:40:53;;;;;;;37.57;16.33;;;6.70;99.90;;;;;;5074807;28;20575;-47
2023/12/14 03:43:19;;;;;;;32.23;17.80;;;6.70;99.90;;;;;;5075177;28;20187;-48
2023/12/14 03:45:44;;;;;;;28.77;16.57;;;6.60;99.90;;;;;;5057576;28;20184;-47
2023/12/14 03:48:10;;;;;;;29.07;14.17;;;6.60;99.90;;;;;;5075015;28;20225;-49
2023/12/14 03:50:36;;;;;;;26.37;15.23;;;6.60;99.90;;;;;;5074603;28;20199;-48
2023/12/14 03:53:02;;;;;;;28.60;16.00;;;6.60;99.90;;;;;;5074644;28;20180;-47
2023/12/14 03:55:29;;;;;;;22.63;13.07;;;6.60;99.90;;;;;;5056999;28;20264;-49
2023/12/14 03:57:54;;;;;;;19.90;10.60;;;6.60;99.90;;;;;;5074921;28;20183;-47
2023/12/14 04:00:21;;;;;;;30.00;15.43;;;6.50;99.90;;;;;;5074420;28;20571;-47
2023/12/14 04:02:47;;;;;;;31.00;16.00;;;6.50;99.90;;;;;;5074688;28;20229;-48
2023/12/14 04:05:19;;;;;;;31.43;14.70;;;6.50;99.90;;;;;;5073873;28;20587;-49
2023/12/14 04:07:45;;;;;;;24.90;13.33;;;6.50;99.90;;;;;;5074365;28;20182;-47
2023/12/14 04:10:13;;;;;;;31.50;16.67;;;6.50;99.90;;;;;;5056725;28;20294;-49
2023/12/14 04:12:40;;;;;;;37.60;15.70;;;6.50;99.90;;;;;;5074261;28;20541;-46
2023/12/14 04:15:09;;;;;;;24.90;15.33;;;6.50;99.90;;;;;;5056788;28;20260;-47
2023/12/14 04:17:40;;;;;;;27.90;15.30;;;6.40;99.90;;;;;;5074244;28;20254;-47
2023/12/14 04:20:07;;;;;;;29.67;15.63;;;6.40;99.90;;;;;;5056179;28;20215;-48
2023/12/14 04:22:34;;;;;;;22.37;13.47;;;6.40;99.90;;;;;;5056671;28;20195;-47
2023/12/14 04:25:07;;;;;;;30.10;16.33;;;6.40;99.90;;;;;;5074291;28;20655;-50
2023/12/14 04:27:33;;;;;;;31.67;17.83;;;6.40;99.90;;;;;;5074499;28;20164;-47
2023/12/14 04:30:04;;;;;;;29.80;16.87;;;6.30;99.90;;;;;;5074464;28;20253;-44
2023/12/14 04:32:30;;;;;;;26.23;15.60;;;6.30;99.90;;;;;;5073245;28;20197;-45
2023/12/14 04:34:57;;;;;;;27.37;14.77;;;6.30;99.90;;;;;;5074515;28;20232;-44
2023/12/14 04:37:23;;;;;;;31.10;17.37;;;6.30;99.90;;;;;;5074909;28;20529;-45
2023/12/14 04:39:49;;;;;;;31.47;17.80;;;6.30;99.90;;;;;;5073831;28;20256;-46
2023/12/14 04:42:26;;;;;;;27.37;16.00;;;6.30;99.90;;;;;;5056227;28;20274;-46
2023/12/14 04:44:52;;;;;;;30.80;15.30;;;6.30;99.90;;;;;;5073073;28;20192;-44
2023/12/14 04:47:18;;;;;;;30.20;16.47;;;6.30;99.90;;;;;;5056010;28;20260;-47
2023/12/14 04:49:43;;;;;;;34.97;16.00;;;6.20;99.90;;;;;;5073561;28;20709;-45
2023/12/14 04:55:32;;;;;;;49.10;16.23;;;6.30;99.90;;;;;;5073672;28;20585;-45
2023/12/14 04:58:00;;;;;;;27.90;16.07;;;6.20;99.90;;;;;;5073574;28;20262;-45
2023/12/14 05:00:28;;;;;;;27.40;15.27;;;6.20;99.90;;;;;;5073629;28;20576;-45
2023/12/14 05:02:53;;;;;;;33.07;15.80;;;6.20;99.90;;;;;;5056260;28;20190;-45
2023/12/14 05:06:00;;;;;;;29.93;17.30;;;6.10;99.90;;;;;;5073536;28;20179;-45
2023/12/14 05:08:25;;;;;;;32.37;15.77;;;6.10;99.90;;;;;;5073684;28;20189;-45
2023/12/14 05:10:51;;;;;;;24.93;13.63;;;6.10;99.90;;;;;;5055856;28;20199;-44
2023/12/14 05:13:17;;;;;;;27.73;14.63;;;6.10;99.90;;;;;;5056110;28;20245;-45
2023/12/14 05:15:51;;;;;;;24.80;15.23;;;6.10;99.90;;;;;;5055494;28;20202;-45
2023/12/14 05:18:29;;;;;;;25.90;13.77;;;6.10;99.90;;;;;;5072473;28;20190;-45
2023/12/14 05:20:55;;;;;;;25.60;14.77;;;6.10;99.90;;;;;;5055606;28;20577;-45
2023/12/14 05:23:21;;;;;;;27.87;14.03;;;6.10;99.90;;;;;;5073510;28;20183;-46
2023/12/14 05:25:47;;;;;;;28.23;14.90;;;6.10;99.90;;;;;;5073498;28;20199;-45
2023/12/14 05:28:13;;;;;;;25.43;14.43;;;6.10;99.90;;;;;;5073467;28;20190;-45
2023/12/14 05:30:38;;;;;;;28.57;13.87;;;6.10;99.90;;;;;;5055604;28;20570;-44
2023/12/14 05:33:04;;;;;;;27.27;14.60;;;6.10;99.90;;;;;;5073289;28;20671;-43
2023/12/14 05:35:33;;;;;;;24.37;14.00;;;6.10;99.90;;;;;;5055746;28;20195;-44
2023/12/14 05:38:07;;;;;;;22.97;12.77;;;6.00;99.90;;;;;;5073243;28;20183;-46
2023/12/14 05:40:34;;;;;;;23.80;11.83;;;6.10;99.90;;;;;;5073295;28;20203;-43
2023/12/14 05:42:59;;;;;;;26.83;13.67;;;6.00;99.90;;;;;;5074018;28;20228;-43
2023/12/14 05:45:25;;;;;;;25.10;11.93;;;6.00;99.90;;;;;;5078014;28;20207;-45
2023/12/14 05:47:54;;;;;;;24.20;12.70;;;6.00;99.90;;;;;;5077555;28;20171;-45
2023/12/14 05:50:21;;;;;;;22.73;12.43;;;6.00;99.90;;;;;;5078122;28;20205;-44
2023/12/14 05:52:47;;;;;;;22.80;12.90;;;6.00;99.90;;;;;;5077797;28;20176;-45
2023/12/14 05:55:13;;;;;;;24.33;13.13;;;6.00;99.90;;;;;;5073449;28;20520;-46
2023/12/14 05:57:49;;;;;;;25.33;13.97;;;6.00;99.90;;;;;;5076088;28;20695;-44
2023/12/14 06:00:18;;;;;;;23.17;13.20;;;5.90;99.90;;;;;;5058787;28;20760;-44
2023/12/14 06:02:44;;;;;;;23.67;13.83;;;6.00;99.90;;;;;;5077014;28;20267;-44
2023/12/14 06:05:15;;;;;;;24.90;13.67;;;6.00;99.90;;;;;;5076790;28;20218;-46
2023/12/14 06:07:41;;;;;;;27.17;14.70;;;6.00;99.90;;;;;;5074693;28;20184;-44
2023/12/14 06:10:09;;;;;;;23.57;13.40;;;6.00;99.90;;;;;;5076606;28;20298;-45
2023/12/14 06:12:38;;;;;;;28.70;14.07;;;5.90;99.90;;;;;;5076826;28;20647;-46
2023/12/14 06:15:05;;;;;;;25.83;14.00;;;5.90;99.90;;;;;;5076825;28;20195;-45
2023/12/14 06:17:33;;;;;;;27.67;14.50;;;5.90;99.90;;;;;;5058875;28;20226;-47
2023/12/14 06:19:59;;;;;;;27.90;14.37;;;5.90;99.90;;;;;;5076292;28;20204;-45
2023/12/14 06:22:26;;;;;;;25.43;14.03;;;5.90;99.90;;;;;;5077052;28;20198;-45
2023/12/14 06:24:52;;;;;;;24.30;12.90;;;5.90;99.90;;;;;;5075479;28;20244;-46
2023/12/14 06:27:19;;;;;;;21.33;12.77;;;5.80;99.90;;;;;;5058601;28;20183;-45
2023/12/14 06:29:45;;;;;;;27.10;14.10;;;5.80;99.90;;;;;;5076170;28;20195;-44
2023/12/14 06:32:12;;;;;;;28.30;14.30;;;5.80;99.90;;;;;;5058711;28;20313;-45
2023/12/14 06:34:38;;;;;;;25.03;14.47;;;5.80;99.90;;;;;;5058246;28;20279;-44
2023/12/14 06:37:07;;;;;;;29.70;14.07;;;5.80;99.90;;;;;;5058344;28;20271;-44
2023/12/14 06:39:37;;;;;;;28.40;15.40;;;5.80;99.90;;;;;;5058315;28;20211;-44
2023/12/14 06:42:06;;;;;;;28.23;14.73;;;5.80;99.90;;;;;;5076005;28;20176;-44
2023/12/14 06:44:32;;;;;;;28.20;13.90;;;5.80;99.90;;;;;;5076244;28;20209;-47
2023/12/14 06:47:47;;;;;;;29.03;15.63;;;5.80;99.90;;;;;;5076017;28;20537;-45
2023/12/14 06:50:17;;;;;;;27.13;13.93;;;5.80;99.90;;;;;;5076146;28;20203;-44
2023/12/14 06:52:43;;;;;;;31.33;15.93;;;5.80;99.90;;;;;;5075854;28;20270;-44
2023/12/14 06:55:09;;;;;;;23.83;13.53;;;5.80;99.90;;;;;;5075827;28;20267;-45
2023/12/14 06:57:38;;;;;;;25.33;14.20;;;5.80;99.90;;;;;;5075892;28;20675;-44
2023/12/14 07:00:09;;;;;;;28.83;15.90;;;5.80;99.90;;;;;;5075783;28;20245;-45
2023/12/14 07:02:45;;;;;;;23.00;14.87;;;5.80;99.90;;;;;;5058125;28;20191;-44
2023/12/14 07:08:37;;;;;;;21.17;10.70;;;5.70;99.90;;;;;;5075486;28;20631;-45
2023/12/14 07:11:02;;;;;;;26.17;15.20;;;5.70;99.90;;;;;;5058034;28;20527;-43
2023/12/14 07:13:28;;;;;;;26.87;14.93;;;5.70;99.90;;;;;;5075826;28;20198;-44
2023/12/14 07:15:54;;;;;;;28.27;15.47;;;5.70;99.90;;;;;;5075479;28;20709;-44
2023/12/14 07:18:20;;;;;;;28.63;15.73;;;5.70;99.90;;;;;;5075725;28;20156;-45
2023/12/14 07:20:46;;;;;;;27.93;15.13;;;5.70;99.90;;;;;;5057617;28;20310;-44
2023/12/14 07:23:18;;;;;;;27.80;16.70;;;5.70;99.90;;;;;;5075834;28;20184;-45
2023/12/14 07:26:21;;;;;;;27.97;16.53;;;5.70;99.90;;;;;;5057494;28;20175;-48
2023/12/14 07:28:49;;;;;;;27.13;15.57;;;5.60;99.90;;;;;;5075146;28;20180;-47
2023/12/14 07:31:15;;;;;;;34.47;15.90;;;5.70;99.90;;;;;;5075367;28;20587;-48
2023/12/14 07:33:50;;;;;;;25.70;15.93;;;5.60;99.90;;;;;;5057172;28;20268;-47
2023/12/14 07:39:48;;;;;;;29.40;16.67;;;5.60;99.90;;;;;;5074899;28;20264;-49
2023/12/14 07:42:19;;;;;;;29.87;17.10;;;5.60;99.90;;;;;;5075151;28;20166;-48
2023/12/14 07:44:45;;;;;;;32.03;16.50;;;5.60;99.90;;;;;;5075161;28;20172;-47
2023/12/14 07:47:11;;;;;;;26.20;14.63;;;5.60;99.90;;;;;;5056857;28;20666;-49
2023/12/14 07:49:37;;;;;;;26.53;15.70;;;5.50;99.90;;;;;;5074691;28;20203;-48
2023/12/14 07:52:17;;;;;;;27.97;15.90;;;5.50;99.90;;;;;;5057696;28;20219;-48
2023/12/14 07:54:43;;;;;;;27.07;17.13;;;5.50;99.90;;;;;;5074762;28;20166;-48
2023/12/14 07:57:08;;;;;;;27.07;14.70;;;5.50;99.90;;;;;;5074658;28;20229;-47
2023/12/14 07:59:34;;;;;;;31.10;17.07;;;5.50;99.90;;;;;;5056539;28;20203;-49
2023/12/14 08:02:00;;;;;;;27.77;17.17;;;5.50;99.90;;;;;;5074573;28;20586;-48
2023/12/14 08:04:29;;;;;;;26.40;16.23;;;5.50;99.90;;;;;;5057042;28;20183;-49
2023/12/14 08:06:58;;;;;;;30.40;16.37;;;5.40;99.90;;;;;;5056744;28;20211;-48
2023/12/14 08:09:23;;;;;;;29.73;16.53;;;5.40;99.90;;;;;;5074338;28;20659;-48
2023/12/14 08:11:51;;;;;;;28.97;15.97;;;5.50;99.90;;;;;;5056986;28;20190;-48
2023/12/14 08:14:18;;;;;;;28.20;16.90;;;5.40;99.90;;;;;;5073685;28;20191;-48
2023/12/14 08:16:44;;;;;;;29.87;17.70;;;5.40;99.90;;;;;;5039843;28;20206;-47
2023/12/14 08:19:35;;;;;;;29.93;16.83;;;5.40;99.90;;;;;;5073962;28;20197;-47
2023/12/14 08:22:01;;;;;;;28.77;15.50;;;5.40;99.90;;;;;;5074628;28;20240;-48
2023/12/14 08:24:28;;;;;;;28.80;16.23;;;5.40;99.90;;;;;;5074219;28;20640;-47
2023/12/14 08:26:56;;;;;;;29.10;16.80;;;5.40;99.90;;;;;;5056399;28;20175;-47
2023/12/14 08:30:12;;;;;;;25.97;15.87;;;5.40;99.90;;;;;;5074564;28;20196;-48
2023/12/14 08:32:38;;;;;;;26.20;15.27;;;5.40;99.90;;;;;;5073965;28;20643;-48
2023/12/14 08:35:04;;;;;;;27.83;16.93;;;5.40;99.90;;;;;;5074028;28;20235;-48
2023/12/14 08:37:30;;;;;;;21.50;14.27;;;5.50;99.90;;;;;;5056505;28;20211;-48
2023/12/14 08:39:55;;;;;;;24.43;15.37;;;5.40;99.90;;;;;;5056217;28;20241;-48
2023/12/14 08:42:27;;;;;;;26.23;15.47;;;5.40;99.90;;;;;;5073824;28;20281;-49
2023/12/14 08:44:53;;;;;;;22.47;14.70;;;5.40;99.90;;;;;;5073844;28;20152;-48
2023/12/14 08:47:19;;;;;;;24.57;14.77;;;5.50;99.90;;;;;;5056492;28;20505;-47
2023/12/14 08:49:47;;;;;;;25.30;15.47;;;5.50;99.90;;;;;;5073701;28;20195;-48
2023/12/14 08:52:14;;;;;;;24.17;15.23;;;5.40;99.90;;;;;;5073823;28;20255;-47
2023/12/14 08:54:43;;;;;;;23.73;15.00;;;5.40;99.90;;;;;;5074244;28;20300;-47
2023/12/14 08:57:12;;;;;;;24.13;14.60;;;5.40;99.90;;;;;;5045688;28;20301;-48
2023/12/14 08:59:40;;;;;;;23.63;14.57;;;5.40;99.90;;;;;;5073598;28;20194;-47
2023/12/14 09:02:09;;;;;;;25.73;15.27;;;5.40;99.90;;;;;;5073860;28;20174;-47
2023/12/14 09:04:35;;;;;;;24.27;14.07;;;5.40;99.90;;;;;;5073574;28;20579;-47
2023/12/14 09:07:01;;;;;;;25.10;15.80;;;5.40;99.90;;;;;;5073541;28;20175;-47
2023/12/14 09:09:32;;;;;;;25.43;16.73;;;5.40;99.90;;;;;;5073675;28;20252;-47
2023/12/14 09:11:59;;;;;;;24.67;14.83;;;5.40;99.90;;;;;;5055692;28;20218;-49
2023/12/14 09:14:26;;;;;;;24.60;15.57;;;5.40;99.90;;;;;;5073722;28;20178;-47
2023/12/14 09:16:52;;;;;;;24.33;15.50;;;5.40;99.90;;;;;;5073377;28;20551;-47
2023/12/14 09:19:18;;;;;;;22.40;15.00;;;5.40;99.90;;;;;;5073799;28;20198;-49
2023/12/14 09:22:17;;;;;;;24.33;14.90;;;5.40;99.90;;;;;;5072629;28;20215;-48
2023/12/14 09:24:43;;;;;;;22.23;12.67;;;5.40;99.90;;;;;;5073694;28;20178;-47
2023/12/14 09:27:09;;;;;;;23.17;15.37;;;5.40;99.90;;;;;;5057465;28;20187;-48
2023/12/14 09:29:35;;;;;;;23.03;14.50;;;5.40;99.90;;;;;;5058546;28;20298;-50
2023/12/14 09:32:01;;;;;;;22.17;14.47;;;5.40;99.90;;;;;;5060575;28;20198;-48
2023/12/14 09:34:31;;;;;;;27.97;16.57;;;5.40;99.90;;;;;;5062185;28;20189;-48
2023/12/14 09:36:57;;;;;;;23.73;14.87;;;5.40;99.90;;;;;;5078776;28;20197;-48
2023/12/14 09:39:23;;;;;;;26.73;15.73;;;5.40;99.90;;;;;;5090030;28;20276;-48
2023/12/14 09:41:50;;;;;;;25.13;15.53;;;5.40;99.90;;;;;;5089416;28;20234;-49
2023/12/14 09:44:16;;;;;;;25.77;16.83;;;5.40;99.90;;;;;;5089165;28;20218;-48
2023/12/14 09:46:49;;;;;;;23.87;15.27;;;5.40;99.90;;;;;;5089083;28;20516;-48
2023/12/14 09:49:18;;;;;;;23.90;15.57;;;5.40;99.90;;;;;;5076855;28;20324;-44
2023/12/14 09:51:44;;;;;;;21.37;14.67;;;5.40;99.90;;;;;;5081819;28;20206;-43
2023/12/14 09:54:09;;;;;;;22.17;13.67;;;5.40;99.90;;;;;;5063582;28;20651;-45
2023/12/14 09:56:35;;;;;;;25.37;15.27;;;5.40;99.90;;;;;;5081057;28;20191;-44
2023/12/14 09:59:04;;;;;;;23.13;14.77;;;5.40;99.90;;;;;;5081063;28;20198;-44
2023/12/14 10:01:32;;;;;;;25.30;15.30;;;5.40;99.90;;;;;;5081160;28;20206;-44
2023/12/14 10:04:09;;;;;;;25.03;16.03;;;5.40;99.90;;;;;;5080955;28;20179;-44
2023/12/14 10:06:35;;;;;;;22.77;14.93;;;5.40;99.90;;;;;;5080905;28;20240;-45
2023/12/14 10:09:01;;;;;;;24.13;15.80;;;5.40;99.90;;;;;;5080634;28;20203;-44
2023/12/14 10:11:27;;;;;;;26.47;15.83;;;5.40;99.90;;;;;;5080875;28;20256;-44
2023/12/14 10:13:52;;;;;;;30.37;16.40;;;5.40;99.90;;;;;;5080560;28;20646;-44
2023/12/14 10:16:33;;;;;;;24.37;15.13;;;5.30;99.90;;;;;;5080460;28;20670;-45
2023/12/14 10:19:02;;;;;;;23.13;15.33;;;5.40;99.90;;;;;;5045365;28;20229;-45
2023/12/14 10:21:28;;;;;;;24.63;15.57;;;5.40;99.90;;;;;;5080450;28;20200;-44
2023/12/14 10:23:59;;;;;;;23.00;15.17;;;5.40;99.90;;;;;;5080592;28;20587;-44
2023/12/14 10:26:27;;;;;;;21.77;14.63;;;5.40;99.90;;;;;;5062186;28;20243;-44
2023/12/14 10:28:56;;;;;;;21.70;15.47;;;5.40;99.90;;;;;;5061866;28;20702;-44
2023/12/14 10:31:23;;;;;;;24.73;15.53;;;5.40;99.90;;;;;;5080935;28;20178;-45
2023/12/14 10:33:50;;;;;;;23.17;14.50;;;5.40;99.90;;;;;;5080692;28;20700;-44
2023/12/14 10:36:20;;;;;;;22.23;15.53;;;5.40;99.90;;;;;;5079765;28;20192;-44
2023/12/14 10:38:49;;;;;;;22.87;14.33;;;5.40;99.90;;;;;;5079406;28;20655;-44
2023/12/14 10:41:19;;;;;;;21.10;14.17;;;5.40;99.90;;;;;;5061818;28;20767;-45
2023/12/14 10:43:47;;;;;;;23.07;15.23;;;5.40;99.90;;;;;;5079277;28;20178;-44
2023/12/14 10:46:14;;;;;;;24.47;15.40;;;5.40;99.90;;;;;;5080344;28;20247;-43
2023/12/14 10:48:47;;;;;;;29.20;15.33;;;5.40;99.90;;;;;;5061657;28;20643;-43
2023/12/14 10:51:20;;;;;;;20.63;12.23;;;5.40;99.90;;;;;;5076110;28;20201;-44
2023/12/14 10:53:53;;;;;;;28.50;15.80;;;5.40;99.90;;;;;;5076340;28;20217;-44
2023/12/14 10:56:19;;;;;;;28.67;16.27;;;5.50;99.90;;;;;;5076111;28;20183;-43
2023/12/14 10:58:57;;;;;;;24.47;14.83;;;5.50;99.90;;;;;;5075770;28;20592;-43
2023/12/14 11:01:34;;;;;;;27.67;15.47;;;5.50;99.90;;;;;;5076072;28;20199;-44
2023/12/14 11:04:00;;;;;;;25.00;15.70;;;5.40;99.90;;;;;;5076074;28;20546;-44
2023/12/14 11:06:37;;;;;;;21.77;14.37;;;5.50;99.90;;;;;;5075899;28;20174;-42
2023/12/14 11:09:10;;;;;;;24.03;15.50;;;5.50;99.90;;;;;;5075808;28;20195;-44
2023/12/14 11:11:57;;;;;;;22.77;15.03;;;5.50;99.90;;;;;;5057455;28;20261;-44
2023/12/14 11:14:26;;;;;;;24.77;15.33;;;5.50;99.90;;;;;;5075555;28;20182;-43
2023/12/14 11:16:57;;;;;;;25.87;15.00;;;5.50;99.90;;;;;;5058007;28;20183;-43
2023/12/14 11:19:31;;;;;;;23.37;14.30;;;5.60;99.90;;;;;;5057267;28;20690;-44
2023/12/14 11:22:23;;;;;;;25.07;14.60;;;5.60;99.90;;;;;;5075694;28;20206;-43
2023/12/14 11:24:55;;;;;;;19.90;13.53;;;5.60;99.90;;;;;;5076044;28;20156;-44
2023/12/14 11:27:29;;;;;;;25.73;14.33;;;5.60;99.90;;;;;;5075270;28;20197;-42
2023/12/14 11:29:56;;;;;;;25.20;14.30;;;5.60;99.90;;;;;;5075510;28;20207;-44
2023/12/14 11:32:24;;;;;;;21.63;14.27;;;5.60;99.90;;;;;;5075178;28;20186;-44
2023/12/14 11:34:50;;;;;;;21.73;12.93;;;5.60;99.90;;;;;;5075993;28;20666;-43
2023/12/14 11:37:53;;;;;;;20.67;12.80;;;5.60;99.90;;;;;;5075106;28;20209;-43
2023/12/14 11:40:22;;;;;;;20.13;13.37;;;5.60;99.90;;;;;;5074882;28;20195;-44
2023/12/14 11:43:07;;;;;;;22.00;13.20;;;5.60;99.90;;;;;;5074915;28;20179;-46
2023/12/14 11:45:40;;;;;;;20.57;12.23;;;5.60;99.90;;;;;;5074557;28;20604;-44
2023/12/14 11:48:16;;;;;;;20.60;12.87;;;5.60;99.90;;;;;;5075224;28;20179;-45
2023/12/14 11:50:44;;;;;;;20.80;13.17;;;5.70;99.90;;;;;;5075167;28;20208;-44
2023/12/14 11:53:11;;;;;;;19.60;13.17;;;5.70;99.90;;;;;;5075012;28;20187;-45
2023/12/14 11:55:41;;;;;;;18.70;11.97;;;5.70;99.90;;;;;;5073326;28;20586;-44
2023/12/14 11:58:07;;;;;;;19.20;12.43;;;5.70;99.90;;;;;;5056611;28;20188;-45
2023/12/14 12:03:20;;;;;;;18.17;11.43;;;5.60;99.90;;;;;;5074701;28;20161;-45
2023/12/14 12:05:52;;;;;;;22.03;13.00;;;5.70;99.90;;;;;;5073853;28;20188;-45
2023/12/14 12:08:21;;;;;;;18.67;11.83;;;5.60;99.90;;;;;;5057355;28;20207;-48
2023/12/14 12:10:48;;;;;;;16.20;11.10;;;5.60;99.90;;;;;;5074415;28;20270;-47
2023/12/14 12:13:17;;;;;;;15.23;10.77;;;5.70;99.90;;;;;;5074626;28;20183;-47
2023/12/14 12:15:43;;;;;;;17.43;11.50;;;5.70;99.90;;;;;;5074254;28;20655;-47
2023/12/14 12:18:12;;;;;;;16.50;10.37;;;5.80;99.90;;;;;;5074284;28;20257;-47
2023/12/14 12:20:38;;;;;;;17.00;9.77;;;5.80;99.90;;;;;;5056911;28;20215;-48
2023/12/14 12:23:06;;;;;;;16.10;10.70;;;5.80;99.90;;;;;;5074154;28;20278;-47
2023/12/14 12:25:33;;;;;;;17.40;10.20;;;5.80;99.90;;;;;;5074330;28;20581;-47
2023/12/14 12:28:04;;;;;;;22.43;11.27;;;5.70;99.90;;;;;;5074262;28;20578;-47
2023/12/14 12:30:29;;;;;;;17.60;10.50;;;5.80;99.90;;;;;;5074218;28;20624;-48
2023/12/14 12:32:55;;;;;;;16.83;10.13;;;5.80;99.90;;;;;;5073777;28;20190;-48
2023/12/14 12:39:03;;;;;;;15.50;9.87;;;5.70;99.90;;;;;;5074237;28;20204;-47
2023/12/14 12:41:30;;;;;;;15.80;10.20;;;5.70;99.90;;;;;;5056177;28;20195;-47
2023/12/14 12:44:08;;;;;;;17.50;10.10;;;5.70;99.90;;;;;;5074016;28;20175;-47
2023/12/14 12:46:35;;;;;;;14.60;9.77;;;5.60;99.90;;;;;;5073087;28;20272;-48
2023/12/14 12:49:05;;;;;;;16.27;9.77;;;5.60;99.90;;;;;;5073940;28;20608;-47
2023/12/14 12:51:32;;;;;;;13.93;9.73;;;5.60;99.90;;;;;;5056222;28;20187;-47
2023/12/14 12:54:00;;;;;;;15.03;9.43;;;5.60;99.90;;;;;;5073678;28;20194;-48
2023/12/14 12:56:29;;;;;;;13.83;10.03;;;5.60;99.90;;;;;;5056589;28;20178;-46
2023/12/14 12:58:54;;;;;;;16.00;10.67;;;5.60;99.90;;;;;;5073915;28;20282;-46
2023/12/14 13:01:22;;;;;;;15.23;10.07;;;5.50;99.90;;;;;;5073687;28;20647;-46
2023/12/14 13:03:56;;;;;;;15.23;10.20;;;5.60;99.90;;;;;;5071357;28;20203;-47
2023/12/14 13:06:25;;;;;;;18.57;10.80;;;5.50;99.90;;;;;;5056035;28;20171;-47
2023/12/14 13:08:51;;;;;;;15.27;9.93;;;5.50;99.90;;;;;;5072051;28;20190;-46